createdAt,value
2018-05-15T00:00:32.357Z,18.1
2018-05-15T00:01:33.609Z,18.2
2018-05-15T00:02:34.875Z,18
2018-05-15T00:03:36.118Z,18.1
2018-05-15T00:04:37.706Z,18
2018-05-15T00:05:38.944Z,18
2018-05-15T00:06:40.191Z,17.8
2018-05-15T00:07:41.464Z,17.7
2018-05-15T00:08:42.698Z,17.7
2018-05-15T00:09:44.479Z,17.7
2018-05-15T00:10:45.760Z,17.7
2018-05-15T00:11:47.101Z,17.8
2018-05-15T00:12:48.396Z,17.6
2018-05-15T00:13:49.692Z,17.7
2018-05-15T00:14:50.997Z,17.7
2018-05-15T00:15:52.294Z,17.6
2018-05-15T00:16:53.628Z,17.7
2018-05-15T00:17:54.926Z,17.5
2018-05-15T00:18:56.214Z,17.5
2018-05-15T00:19:57.500Z,17.5
2018-05-15T00:20:58.812Z,17.5
2018-05-15T00:22:00.111Z,17.4
2018-05-15T00:23:01.423Z,17.5
2018-05-15T00:24:02.741Z,17.5
2018-05-15T00:25:04.229Z,17.5
2018-05-15T00:26:05.494Z,17.4
2018-05-15T00:27:06.792Z,17.3
2018-05-15T00:28:08.514Z,17.3
2018-05-15T00:29:10.317Z,17.3
2018-05-15T00:30:11.601Z,17.4
2018-05-15T00:31:12.874Z,17.4
2018-05-15T00:32:14.151Z,17.4
2018-05-15T00:33:15.457Z,17.2
2018-05-15T00:34:17.100Z,17.2
2018-05-15T00:35:18.421Z,17.1
2018-05-15T00:36:19.775Z,17.2
2018-05-15T00:37:21.415Z,17.1
2018-05-15T00:38:22.700Z,17.3
2018-05-15T00:39:24.018Z,17.2
2018-05-15T00:40:25.365Z,17.2
2018-05-15T00:41:26.776Z,17.2
2018-05-15T00:42:28.082Z,17.1
2018-05-15T00:43:29.377Z,17.1
2018-05-15T00:44:30.675Z,17.1
2018-05-15T00:45:32.019Z,17.1
2018-05-15T00:46:33.317Z,17.1
2018-05-15T00:47:34.589Z,17.1
2018-05-15T00:48:35.886Z,17
2018-05-15T00:49:37.118Z,17
2018-05-15T00:50:38.435Z,17
2018-05-15T00:51:39.748Z,17
2018-05-15T00:52:41.033Z,17
2018-05-15T00:53:42.292Z,17
2018-05-15T00:54:43.574Z,16.9
2018-05-15T00:55:44.891Z,16.9
2018-05-15T00:56:46.508Z,16.8
2018-05-15T00:57:48.240Z,17
2018-05-15T00:58:49.620Z,16.8
2018-05-15T00:59:53.324Z,16.9
2018-05-15T01:00:54.656Z,16.9
2018-05-15T01:01:55.916Z,16.8
2018-05-15T01:02:57.221Z,16.7
2018-05-15T01:03:58.874Z,16.8
2018-05-15T01:05:00.276Z,16.7
2018-05-15T01:06:01.623Z,16.7
2018-05-15T01:07:02.917Z,16.6
2018-05-15T01:08:04.453Z,16.5
2018-05-15T01:09:05.876Z,16.6
2018-05-15T01:10:07.197Z,16.6
2018-05-15T01:11:08.702Z,16.6
2018-05-15T01:12:10.011Z,16.7
2018-05-15T01:13:11.301Z,16.5
2018-05-15T01:14:12.589Z,16.4
2018-05-15T01:15:13.874Z,16.4
2018-05-15T01:16:15.571Z,16.3
2018-05-15T01:17:17.288Z,16.4
2018-05-15T01:18:18.623Z,16.4
2018-05-15T01:19:19.898Z,16.4
2018-05-15T01:20:21.161Z,16.3
2018-05-15T01:21:22.485Z,16.3
2018-05-15T01:22:23.802Z,16.3
2018-05-15T01:23:25.067Z,16.1
2018-05-15T01:24:26.338Z,16.3
2018-05-15T01:25:27.619Z,16.3
2018-05-15T01:26:28.946Z,16.2
2018-05-15T01:27:30.294Z,16.2
2018-05-15T01:28:31.588Z,16.2
2018-05-15T01:29:32.984Z,16.3
2018-05-15T01:30:34.254Z,16.3
2018-05-15T01:31:35.576Z,16.3
2018-05-15T01:32:36.862Z,16.2
2018-05-15T01:33:38.153Z,16.1
2018-05-15T01:34:39.466Z,16.1
2018-05-15T01:35:40.857Z,16.2
2018-05-15T01:36:42.150Z,16.1
2018-05-15T01:37:43.426Z,16
2018-05-15T01:38:44.797Z,16.1
2018-05-15T01:39:46.176Z,16.1
2018-05-15T01:40:47.610Z,16
2018-05-15T01:41:49.173Z,15.9
2018-05-15T01:42:50.409Z,16
2018-05-15T01:43:51.863Z,16.1
2018-05-15T01:44:53.123Z,15.9
2018-05-15T01:45:54.408Z,15.9
2018-05-15T01:46:55.702Z,16
2018-05-15T01:47:56.974Z,15.9
2018-05-15T01:48:58.230Z,15.8
2018-05-15T01:49:59.540Z,15.8
2018-05-15T01:51:00.808Z,15.8
2018-05-15T01:52:02.153Z,15.7
2018-05-15T01:53:03.424Z,15.7
2018-05-15T01:54:04.729Z,15.6
2018-05-15T01:55:06.025Z,15.6
2018-05-15T01:56:07.297Z,15.6
2018-05-15T01:57:08.889Z,15.6
2018-05-15T01:58:10.169Z,15.6
2018-05-15T01:59:11.454Z,15.6
2018-05-15T02:00:12.709Z,15.6
2018-05-15T02:01:13.988Z,15.6
2018-05-15T02:02:15.301Z,15.6
2018-05-15T02:03:16.579Z,15.6
2018-05-15T02:04:17.894Z,15.6
2018-05-15T02:05:19.285Z,15.6
2018-05-15T02:06:20.664Z,15.7
2018-05-15T02:07:21.994Z,15.8
2018-05-15T02:08:23.267Z,15.9
2018-05-15T02:09:24.608Z,15.7
2018-05-15T02:10:25.915Z,15.6
2018-05-15T02:11:27.210Z,15.8
2018-05-15T02:12:28.579Z,15.8
2018-05-15T02:13:29.940Z,15.8
2018-05-15T02:14:31.186Z,15.9
2018-05-15T02:15:32.516Z,16.1
2018-05-15T02:16:33.795Z,15.8
2018-05-15T02:17:35.116Z,15.6
2018-05-15T02:18:36.406Z,15.9
2018-05-15T02:19:38.180Z,15.9
2018-05-15T02:20:39.504Z,15.9
2018-05-15T02:21:40.877Z,16
2018-05-15T02:22:42.197Z,15.9
2018-05-15T02:23:43.551Z,15.9
2018-05-15T02:24:44.989Z,15.7
2018-05-15T02:25:46.287Z,15.8
2018-05-15T02:26:47.740Z,15.8
2018-05-15T02:27:49.305Z,15.7
2018-05-15T02:28:50.632Z,15.8
2018-05-15T02:29:51.964Z,15.9
2018-05-15T02:30:53.226Z,15.7
2018-05-15T02:31:54.478Z,15.7
2018-05-15T02:32:56.520Z,15.7
2018-05-15T02:33:57.978Z,15.7
2018-05-15T02:34:59.225Z,15.6
2018-05-15T02:36:00.515Z,15.6
2018-05-15T02:37:01.779Z,15.5
2018-05-15T02:38:03.079Z,15.5
2018-05-15T02:39:04.410Z,15.5
2018-05-15T02:40:05.835Z,15.4
2018-05-15T02:41:07.270Z,15.3
2018-05-15T02:42:08.654Z,15.3
2018-05-15T02:43:10.573Z,15.3
2018-05-15T02:44:11.895Z,15.3
2018-05-15T02:45:13.177Z,15.2
2018-05-15T02:46:14.641Z,15.2
2018-05-15T02:47:16.235Z,15.3
2018-05-15T02:48:17.536Z,15.2
2018-05-15T02:49:18.843Z,15.1
2018-05-15T02:50:20.168Z,15.1
2018-05-15T02:51:21.548Z,15.1
2018-05-15T02:52:22.819Z,15.1
2018-05-15T02:53:24.203Z,15.2
2018-05-15T02:54:25.531Z,15.1
2018-05-15T02:55:26.807Z,15
2018-05-15T02:56:28.080Z,15.1
2018-05-15T02:57:29.340Z,15.1
2018-05-15T02:58:30.684Z,15.1
2018-05-15T02:59:31.955Z,15.1
2018-05-15T03:00:33.216Z,14.8
2018-05-15T03:01:34.531Z,14.9
2018-05-15T03:02:35.816Z,14.9
2018-05-15T03:03:37.096Z,14.9
2018-05-15T03:04:38.561Z,14.8
2018-05-15T03:05:39.913Z,14.7
2018-05-15T03:06:41.203Z,14.7
2018-05-15T03:07:42.517Z,14.7
2018-05-15T03:08:43.864Z,14.6
2018-05-15T03:09:45.215Z,14.5
2018-05-15T03:10:46.507Z,14.6
2018-05-15T03:11:47.811Z,14.6
2018-05-15T03:12:49.039Z,14.6
2018-05-15T03:13:50.473Z,14.6
2018-05-15T03:14:51.788Z,14.6
2018-05-15T03:15:53.110Z,14.6
2018-05-15T03:16:54.529Z,14.6
2018-05-15T03:17:55.797Z,14.5
2018-05-15T03:18:57.171Z,14.5
2018-05-15T03:19:58.454Z,14.5
2018-05-15T03:20:59.783Z,14.5
2018-05-15T03:22:01.117Z,14.5
2018-05-15T03:23:02.382Z,14.4
2018-05-15T03:24:03.711Z,14.4
2018-05-15T03:25:05.021Z,14.4
2018-05-15T03:26:07.561Z,14.4
2018-05-15T03:27:09.607Z,14.4
2018-05-15T03:28:10.938Z,14.3
2018-05-15T03:29:12.303Z,14.3
2018-05-15T03:30:13.562Z,14.3
2018-05-15T03:31:14.809Z,14.3
2018-05-15T03:32:16.107Z,14.2
2018-05-15T03:33:17.809Z,14.2
2018-05-15T03:34:19.137Z,14.1
2018-05-15T03:35:20.504Z,14.1
2018-05-15T03:36:21.846Z,14.1
2018-05-15T03:37:23.388Z,14.1
2018-05-15T03:38:25.075Z,14.1
2018-05-15T03:39:26.397Z,14.2
2018-05-15T03:40:27.670Z,14.2
2018-05-15T03:41:29.072Z,14.2
2018-05-15T03:42:30.394Z,14.2
2018-05-15T03:43:31.727Z,14.2
2018-05-15T03:44:33.051Z,14.3
2018-05-15T03:45:34.353Z,14.3
2018-05-15T03:46:35.651Z,14.2
2018-05-15T03:47:36.979Z,14.2
2018-05-15T03:48:38.279Z,14.3
2018-05-15T03:49:39.615Z,14.3
2018-05-15T03:50:40.957Z,14.3
2018-05-15T03:51:42.213Z,14.4
2018-05-15T03:52:43.514Z,14.4
2018-05-15T03:53:44.799Z,14.4
2018-05-15T03:54:46.166Z,14.4
2018-05-15T03:55:47.473Z,14.4
2018-05-15T03:56:48.714Z,14.5
2018-05-15T03:57:50.002Z,14.2
2018-05-15T03:58:51.269Z,14.6
2018-05-15T03:59:52.561Z,14.6
2018-05-15T04:00:53.845Z,14.6
2018-05-15T04:01:55.166Z,14.6
2018-05-15T04:02:56.454Z,14.5
2018-05-15T04:03:57.749Z,14.7
2018-05-15T04:04:59.191Z,14.8
2018-05-15T04:06:00.548Z,14.7
2018-05-15T04:07:01.875Z,14.7
2018-05-15T04:08:03.176Z,14.8
2018-05-15T04:09:04.468Z,14.8
2018-05-15T04:10:05.827Z,14.9
2018-05-15T04:11:07.237Z,14.9
2018-05-15T04:12:08.403Z,14.8
2018-05-15T04:13:09.697Z,14.9
2018-05-15T04:14:11.001Z,14.9
2018-05-15T04:15:12.508Z,15.1
2018-05-15T04:16:13.925Z,15.2
2018-05-15T04:17:15.209Z,15.3
2018-05-15T04:18:16.488Z,15.3
2018-05-15T04:19:17.919Z,15.3
2018-05-15T04:20:24.425Z,15.6
2018-05-15T04:21:26.107Z,16.4
2018-05-15T04:22:27.451Z,16.7
2018-05-15T04:23:28.904Z,17
2018-05-15T04:24:30.333Z,17.1
2018-05-15T04:25:31.766Z,17.2
2018-05-15T04:26:33.090Z,17.3
2018-05-15T04:27:34.467Z,17.4
2018-05-15T04:28:35.968Z,17.5
2018-05-15T04:29:37.334Z,17.5
2018-05-15T04:30:38.888Z,17.5
2018-05-15T04:31:40.474Z,17.6
2018-05-15T04:32:41.899Z,17.6
2018-05-15T04:33:43.264Z,17.7
2018-05-15T04:34:44.855Z,17.7
2018-05-15T04:35:46.751Z,17.8
2018-05-15T04:36:48.332Z,17.9
2018-05-15T04:37:49.722Z,18
2018-05-15T04:38:51.124Z,18
2018-05-15T04:39:52.390Z,18.1
2018-05-15T04:40:53.995Z,18
2018-05-15T04:41:55.435Z,18.1
2018-05-15T04:42:57.110Z,18.2
2018-05-15T04:43:58.664Z,18.1
2018-05-15T04:45:02.527Z,18.2
2018-05-15T04:46:04.319Z,18.2
2018-05-15T04:47:06.949Z,18.4
2018-05-15T04:48:08.521Z,18.5
2018-05-15T04:49:09.986Z,18.6
2018-05-15T04:50:11.333Z,18.8
2018-05-15T04:51:12.757Z,18.8
2018-05-15T04:52:14.196Z,18.9
2018-05-15T04:53:15.646Z,19
2018-05-15T04:54:17.095Z,19.1
2018-05-15T04:55:18.665Z,19.1
2018-05-15T04:56:20.081Z,19.1
2018-05-15T04:57:21.685Z,19.1
2018-05-15T04:58:23.144Z,19.1
2018-05-15T04:59:24.538Z,19.2
2018-05-15T05:00:25.949Z,19.3
2018-05-15T05:01:28.632Z,19.4
2018-05-15T05:02:30.172Z,19.4
2018-05-15T05:03:31.798Z,19.5
2018-05-15T05:04:33.242Z,19.5
2018-05-15T05:05:34.765Z,19.6
2018-05-15T05:06:36.247Z,19.6
2018-05-15T05:07:37.678Z,19.7
2018-05-15T05:08:39.163Z,19.8
2018-05-15T05:09:40.992Z,19.9
2018-05-15T05:10:42.478Z,20
2018-05-15T05:11:44.149Z,20
2018-05-15T05:12:45.489Z,20.1
2018-05-15T05:13:46.849Z,20.2
2018-05-15T05:14:48.193Z,20.3
2018-05-15T05:15:49.579Z,20.4
2018-05-15T05:16:51.146Z,20.5
2018-05-15T05:17:52.481Z,20.6
2018-05-15T05:18:53.785Z,20.8
2018-05-15T05:19:55.058Z,20.9
2018-05-15T05:20:59.334Z,21
2018-05-15T05:22:00.721Z,21
2018-05-15T05:23:02.004Z,21.3
2018-05-15T05:24:03.357Z,21.4
2018-05-15T05:25:04.713Z,21.5
2018-05-15T05:26:06.044Z,21.5
2018-05-15T05:27:07.465Z,21.5
2018-05-15T05:28:09.153Z,21.6
2018-05-15T05:29:10.972Z,21.7
2018-05-15T05:30:12.306Z,21.7
2018-05-15T05:31:13.680Z,21.7
2018-05-15T05:32:15.087Z,21.8
2018-05-15T05:33:19.961Z,21.6
2018-05-15T05:34:21.400Z,21.8
2018-05-15T05:35:22.700Z,21.9
2018-05-15T05:36:24.106Z,22
2018-05-15T05:37:25.473Z,22
2018-05-15T05:38:26.733Z,22.1
2018-05-15T05:39:28.028Z,22.1
2018-05-15T05:40:29.436Z,22.2
2018-05-15T05:41:30.788Z,22.2
2018-05-15T05:42:32.058Z,22.4
2018-05-15T05:43:33.297Z,22.5
2018-05-15T05:44:34.572Z,22.5
2018-05-15T05:45:35.841Z,22.6
2018-05-15T05:46:40.510Z,22.6
2018-05-15T05:47:42.113Z,22.8
2018-05-15T05:48:43.450Z,22.9
2018-05-15T05:49:44.719Z,23.1
2018-05-15T05:50:45.992Z,23.1
2018-05-15T05:51:47.369Z,23.1
2018-05-15T05:52:48.684Z,23.2
2018-05-15T05:53:49.967Z,23.2
2018-05-15T05:54:51.296Z,23.3
2018-05-15T05:55:52.552Z,23.3
2018-05-15T05:56:53.804Z,23.5
2018-05-15T05:57:55.116Z,23.5
2018-05-15T05:58:56.352Z,23.6
2018-05-15T05:59:57.654Z,23.7
2018-05-15T06:00:58.920Z,23.7
2018-05-15T06:02:00.187Z,23.8
2018-05-15T06:03:01.616Z,23.9
2018-05-15T06:04:02.918Z,24
2018-05-15T06:05:04.168Z,23.9
2018-05-15T06:06:05.448Z,24.1
2018-05-15T06:07:06.739Z,24.2
2018-05-15T06:08:08.035Z,24.2
2018-05-15T06:09:09.302Z,24.3
2018-05-15T06:10:10.595Z,24.4
2018-05-15T06:11:11.904Z,24.4
2018-05-15T06:12:13.227Z,24.4
2018-05-15T06:13:14.523Z,24.5
2018-05-15T06:14:15.831Z,24.6
2018-05-15T06:15:17.036Z,24.7
2018-05-15T06:16:18.282Z,24.7
2018-05-15T06:17:19.553Z,24.8
2018-05-15T06:18:20.927Z,24.9
2018-05-15T06:19:22.163Z,24.9
2018-05-15T06:20:23.753Z,25
2018-05-15T06:21:25.048Z,25.1
2018-05-15T06:22:26.352Z,25.1
2018-05-15T06:23:28.597Z,25.1
2018-05-15T06:24:29.887Z,25.3
2018-05-15T06:25:31.164Z,25.3
2018-05-15T06:26:32.409Z,25.4
2018-05-15T06:27:33.677Z,25.5
2018-05-15T06:28:35.000Z,25.5
2018-05-15T06:29:36.284Z,25.6
2018-05-15T06:30:37.593Z,25.7
2018-05-15T06:31:38.910Z,25.6
2018-05-15T06:32:40.221Z,25.8
2018-05-15T06:33:41.710Z,25.9
2018-05-15T06:34:42.947Z,25.9
2018-05-15T06:35:44.273Z,25.9
2018-05-15T06:36:45.572Z,26.1
2018-05-15T06:37:46.853Z,26.2
2018-05-15T06:38:48.152Z,26.2
2018-05-15T06:39:49.408Z,26.3
2018-05-15T06:40:50.672Z,26.4
2018-05-15T06:41:52.039Z,26.5
2018-05-15T06:42:53.313Z,26.5
2018-05-15T06:43:54.654Z,26.6
2018-05-15T06:44:55.935Z,26.8
2018-05-15T06:45:57.193Z,26.8
2018-05-15T06:46:58.447Z,26.9
2018-05-15T06:47:59.692Z,27
2018-05-15T06:49:01.231Z,27
2018-05-15T06:50:05.285Z,27
2018-05-15T06:51:06.536Z,27.2
2018-05-15T06:52:07.809Z,27.3
2018-05-15T06:53:09.098Z,27.3
2018-05-15T06:54:10.442Z,27.4
2018-05-15T06:55:11.792Z,27.4
2018-05-15T06:56:13.067Z,27.6
2018-05-15T06:57:14.338Z,27.6
2018-05-15T06:58:15.596Z,27.7
2018-05-15T06:59:16.888Z,27.8
2018-05-15T07:00:18.152Z,27.8
2018-05-15T07:01:19.397Z,28
2018-05-15T07:02:20.724Z,28.2
2018-05-15T07:03:22.008Z,28.2
2018-05-15T07:04:23.311Z,28.3
2018-05-15T07:05:24.583Z,28.4
2018-05-15T07:06:25.845Z,28.5
2018-05-15T07:07:27.240Z,28.5
2018-05-15T07:08:28.585Z,28.5
2018-05-15T07:09:31.210Z,28.5
2018-05-15T07:10:32.529Z,28.6
2018-05-15T07:11:33.808Z,28.6
2018-05-15T07:12:35.074Z,28.7
2018-05-15T07:13:36.329Z,28.9
2018-05-15T07:14:37.616Z,28.9
2018-05-15T07:15:38.908Z,29
2018-05-15T07:16:40.216Z,29.2
2018-05-15T07:17:44.237Z,29.2
2018-05-15T07:18:45.528Z,29.3
2018-05-15T07:19:46.872Z,29.3
2018-05-15T07:20:48.150Z,29.4
2018-05-15T07:21:49.437Z,29.4
2018-05-15T07:22:50.747Z,29.5
2018-05-15T07:23:54.730Z,29.6
2018-05-15T07:24:56.109Z,29.7
2018-05-15T07:25:57.371Z,29.8
2018-05-15T07:26:58.732Z,29.8
2018-05-15T07:28:00.374Z,29.9
2018-05-15T07:29:01.832Z,29.9
2018-05-15T07:30:03.140Z,30
2018-05-15T07:31:04.429Z,30.1
2018-05-15T07:32:05.801Z,30
2018-05-15T07:33:07.165Z,30.1
2018-05-15T07:34:08.662Z,30.1
2018-05-15T07:35:10.102Z,30.1
2018-05-15T07:36:11.466Z,30.1
2018-05-15T07:37:12.782Z,30.3
2018-05-15T07:38:14.139Z,30.3
2018-05-15T07:39:15.585Z,30.4
2018-05-15T07:40:16.927Z,30.3
2018-05-15T07:41:21.428Z,30.4
2018-05-15T07:42:25.041Z,30.5
2018-05-15T07:43:26.289Z,30.5
2018-05-15T07:44:27.586Z,30.5
2018-05-15T07:45:28.935Z,30.6
2018-05-15T07:46:34.169Z,30.6
2018-05-15T07:47:35.560Z,30.7
2018-05-15T07:48:36.865Z,30.7
2018-05-15T07:49:38.121Z,30.8
2018-05-15T07:50:39.435Z,30.8
2018-05-15T07:51:40.754Z,30.8
2018-05-15T07:52:42.086Z,30.8
2018-05-15T07:53:43.352Z,30.8
2018-05-15T07:54:44.648Z,30.9
2018-05-15T07:55:46.005Z,30.9
2018-05-15T07:56:47.292Z,30.9
2018-05-15T07:57:48.589Z,31
2018-05-15T07:58:49.903Z,31
2018-05-15T07:59:51.251Z,31
2018-05-15T08:00:57.758Z,31.1
2018-05-15T08:01:59.181Z,31.1
2018-05-15T08:03:00.569Z,31.1
2018-05-15T08:04:02.046Z,31
2018-05-15T08:05:03.498Z,31.1
2018-05-15T08:06:05.111Z,31.1
2018-05-15T08:07:06.400Z,31.1
2018-05-15T08:08:07.727Z,31.1
2018-05-15T08:09:09.026Z,31.1
2018-05-15T08:10:10.343Z,31.2
2018-05-15T08:11:11.792Z,31.1
2018-05-15T08:12:13.108Z,31.2
2018-05-15T08:13:18.545Z,31.1
2018-05-15T08:14:19.875Z,31.2
2018-05-15T08:15:21.264Z,31.2
2018-05-15T08:16:22.654Z,31.2
2018-05-15T08:17:23.930Z,31.3
2018-05-15T08:18:25.323Z,31.3
2018-05-15T08:19:26.653Z,31.2
2018-05-15T08:20:27.980Z,31.3
2018-05-15T08:21:29.622Z,31.4
2018-05-15T08:22:31.282Z,31.4
2018-05-15T08:23:32.700Z,31.3
2018-05-15T08:24:34.223Z,31.5
2018-05-15T08:25:35.628Z,31.5
2018-05-15T08:26:37.208Z,31.5
2018-05-15T08:27:51.117Z,31.4
2018-05-15T08:28:55.498Z,31.5
2018-05-15T08:29:56.772Z,31.5
2018-05-15T08:30:58.159Z,31.5
2018-05-15T08:31:59.368Z,31.5
2018-05-15T08:33:00.635Z,31.5
2018-05-15T08:34:02.046Z,31.6
2018-05-15T08:35:03.564Z,31.6
2018-05-15T08:36:04.957Z,31.6
2018-05-15T08:37:06.339Z,31.6
2018-05-15T08:38:07.695Z,31.7
2018-05-15T08:39:08.961Z,31.7
2018-05-15T08:40:10.312Z,31.7
2018-05-15T08:41:11.646Z,31.6
2018-05-15T08:43:20.326Z,31.7
2018-05-15T08:44:21.752Z,31.7
2018-05-15T08:45:23.081Z,31.6
2018-05-15T08:46:24.475Z,31.6
2018-05-15T08:47:28.456Z,31.6
2018-05-15T08:48:29.952Z,31.6
2018-05-15T08:49:31.245Z,31.7
2018-05-15T08:50:32.617Z,31.7
2018-05-15T08:51:34.067Z,31.6
2018-05-15T08:52:35.292Z,31.7
2018-05-15T08:53:36.660Z,31.6
2018-05-15T08:54:38.039Z,31.7
2018-05-15T08:55:39.356Z,31.7
2018-05-15T08:57:49.940Z,31.6
2018-05-15T08:58:51.328Z,31.5
2018-05-15T08:59:52.698Z,31.5
2018-05-15T09:00:54.297Z,31.5
2018-05-15T09:01:55.617Z,31.5
2018-05-15T09:02:57.034Z,31.5
2018-05-15T09:04:00.421Z,31.6
2018-05-15T09:05:01.842Z,31.6
2018-05-15T09:06:03.395Z,31.5
2018-05-15T09:07:04.704Z,31.5
2018-05-15T09:08:06.150Z,31.3
2018-05-15T09:09:19.811Z,31.4
2018-05-15T09:10:21.304Z,31.3
2018-05-15T09:11:22.761Z,31.2
2018-05-15T09:12:24.193Z,31.3
2018-05-15T09:13:25.999Z,31.3
2018-05-15T09:14:28.595Z,31.3
2018-05-15T09:15:30.071Z,31.3
2018-05-15T09:16:31.436Z,31.3
2018-05-15T09:17:32.906Z,31.3
2018-05-15T09:18:34.282Z,31.2
2018-05-15T09:19:35.732Z,31.3
2018-05-15T09:22:04.852Z,31.3
2018-05-15T09:23:08.741Z,31.3
2018-05-15T09:24:19.617Z,31.3
2018-05-15T09:25:21.188Z,31.2
2018-05-15T09:26:25.975Z,31.2
2018-05-15T09:27:32.214Z,31.2
2018-05-15T09:28:33.982Z,31.2
2018-05-15T09:29:35.600Z,31.3
2018-05-15T09:30:37.156Z,31.3
2018-05-15T09:31:38.633Z,31.3
2018-05-15T09:32:40.021Z,31.1
2018-05-15T09:33:44.201Z,31.2
2018-05-15T09:34:45.513Z,31.4
2018-05-15T09:35:46.781Z,31.2
2018-05-15T09:36:50.178Z,31.2
2018-05-15T09:37:51.624Z,31.1
2018-05-15T09:38:53.079Z,31.2
2018-05-15T09:39:54.628Z,31.1
2018-05-15T09:40:55.922Z,31.2
2018-05-15T09:41:57.380Z,31.2
2018-05-15T09:42:59.676Z,31.2
2018-05-15T09:44:01.121Z,31.1
2018-05-15T09:45:02.649Z,31.1
2018-05-15T09:46:04.236Z,31.1
2018-05-15T09:47:05.517Z,31
2018-05-15T09:48:06.874Z,31
2018-05-15T09:49:08.169Z,31.1
2018-05-15T09:50:09.521Z,31
2018-05-15T09:51:10.869Z,31.1
2018-05-15T09:52:12.300Z,31.3
2018-05-15T09:53:13.594Z,31.2
2018-05-15T09:54:14.853Z,31.4
2018-05-15T09:55:16.223Z,31.4
2018-05-15T09:56:17.525Z,31.2
2018-05-15T09:57:18.877Z,31.3
2018-05-15T09:58:20.176Z,31.3
2018-05-15T09:59:21.451Z,31.2
2018-05-15T10:00:22.784Z,31.2
2018-05-15T10:01:24.053Z,31.2
2018-05-15T10:02:25.405Z,31.1
2018-05-15T10:03:26.714Z,31
2018-05-15T10:04:27.992Z,31
2018-05-15T10:05:30.131Z,30.9
2018-05-15T10:06:31.527Z,31
2018-05-15T10:07:35.063Z,31.1
2018-05-15T10:08:37.698Z,31
2018-05-15T10:09:39.061Z,31
2018-05-15T10:10:40.438Z,30.9
2018-05-15T10:11:41.707Z,31
2018-05-15T10:12:43.121Z,30.9
2018-05-15T10:13:44.410Z,30.9
2018-05-15T10:14:45.685Z,31
2018-05-15T10:15:47.024Z,30.9
2018-05-15T10:16:48.307Z,30.9
2018-05-15T10:17:49.609Z,31
2018-05-15T10:18:51.144Z,30.9
2018-05-15T10:19:52.705Z,30.9
2018-05-15T10:20:54.343Z,30.9
2018-05-15T10:21:55.750Z,30.8
2018-05-15T10:22:57.159Z,30.9
2018-05-15T10:23:58.627Z,30.9
2018-05-15T10:25:00.369Z,30.9
2018-05-15T10:26:01.958Z,30.7
2018-05-15T10:27:06.074Z,30.7
2018-05-15T10:28:08.159Z,30.6
2018-05-15T10:29:10.231Z,30.8
2018-05-15T10:30:11.665Z,30.8
2018-05-15T10:31:13.093Z,30.6
2018-05-15T10:32:14.365Z,30.6
2018-05-15T10:33:15.982Z,30.6
2018-05-15T10:34:17.471Z,30.6
2018-05-15T10:35:18.760Z,30.5
2018-05-15T10:36:33.825Z,30.4
2018-05-15T10:37:35.724Z,30.4
2018-05-15T10:38:37.001Z,30.4
2018-05-15T10:39:38.283Z,30.5
2018-05-15T10:40:40.561Z,30.4
2018-05-15T10:41:43.817Z,30.4
2018-05-15T10:42:45.166Z,30.4
2018-05-15T10:43:46.506Z,30.3
2018-05-15T10:44:47.899Z,30.3
2018-05-15T10:45:49.484Z,30.3
2018-05-15T10:46:51.035Z,30.4
2018-05-15T10:47:52.466Z,30.3
2018-05-15T10:48:53.749Z,30.2
2018-05-15T10:49:55.076Z,30.2
2018-05-15T10:50:56.422Z,30.2
2018-05-15T10:51:57.902Z,30.2
2018-05-15T10:52:59.220Z,30.2
2018-05-15T10:54:04.711Z,30.2
2018-05-15T10:55:06.297Z,30.2
2018-05-15T10:56:07.894Z,30.1
2018-05-15T10:57:09.405Z,30.1
2018-05-15T10:58:10.703Z,30.1
2018-05-15T10:59:12.067Z,30
2018-05-15T11:00:13.496Z,30.1
2018-05-15T11:01:15.036Z,30
2018-05-15T11:02:16.493Z,30
2018-05-15T11:03:17.823Z,30.1
2018-05-15T11:04:19.140Z,30.1
2018-05-15T11:05:20.457Z,30
2018-05-15T11:06:21.887Z,30
2018-05-15T11:08:33.529Z,29.9
2018-05-15T11:09:36.433Z,29.9
2018-05-15T11:10:43.182Z,29.8
2018-05-15T11:11:48.112Z,29.9
2018-05-15T11:13:07.804Z,29.9
2018-05-15T11:14:10.229Z,29.9
2018-05-15T11:15:12.003Z,29.9
2018-05-15T11:16:17.728Z,29.9
2018-05-15T11:17:19.540Z,29.9
2018-05-15T11:19:38.366Z,29.8
2018-05-15T11:20:39.724Z,29.9
2018-05-15T11:21:41.166Z,29.7
2018-05-15T11:22:47.657Z,29.8
2018-05-15T11:25:01.069Z,29.7
2018-05-15T11:26:03.699Z,29.7
2018-05-15T11:27:05.524Z,29.6
2018-05-15T11:28:15.117Z,29.6
2018-05-15T11:29:16.474Z,29.7
2018-05-15T11:30:17.754Z,29.6
2018-05-15T11:31:21.795Z,29.6
2018-05-15T11:32:24.351Z,29.6
2018-05-15T11:33:28.374Z,29.6
2018-05-15T11:35:36.801Z,29.6
2018-05-15T11:36:38.099Z,29.6
2018-05-15T11:37:39.353Z,29.6
2018-05-15T11:38:40.844Z,29.5
2018-05-15T11:39:42.337Z,29.5
2018-05-15T11:40:43.840Z,29.6
2018-05-15T11:41:45.233Z,29.5
2018-05-15T11:42:46.765Z,29.4
2018-05-15T11:43:48.652Z,29.5
2018-05-15T11:44:49.996Z,29.5
2018-05-15T11:45:51.317Z,29.5
2018-05-15T11:46:52.702Z,29.6
2018-05-15T11:47:54.454Z,29.6
2018-05-15T11:49:01.899Z,29.5
2018-05-15T11:50:03.929Z,29.5
2018-05-15T11:51:05.118Z,29.5
2018-05-15T11:52:06.756Z,29.5
2018-05-15T11:53:07.699Z,29.4
2018-05-15T11:54:08.268Z,29.3
2018-05-15T11:55:09.698Z,29.4
2018-05-15T11:56:11.013Z,29.4
2018-05-15T11:57:12.866Z,29.3
2018-05-15T11:58:15.578Z,29.4
2018-05-15T11:59:18.589Z,29.4
2018-05-15T12:00:20.308Z,29.4
2018-05-15T12:01:22.377Z,29.4
2018-05-15T12:02:24.596Z,29.3
2018-05-15T12:03:26.185Z,29.3
2018-05-15T12:04:34.289Z,29.3
2018-05-15T12:05:36.465Z,29.3
2018-05-15T12:06:38.910Z,29.2
2018-05-15T12:07:40.281Z,29.2
2018-05-15T12:08:43.648Z,29.3
2018-05-15T12:09:45.450Z,29.3
2018-05-15T12:10:51.000Z,29.3
2018-05-15T12:11:52.398Z,29.3
2018-05-15T12:12:54.020Z,29.3
2018-05-15T12:13:55.448Z,29.2
2018-05-15T12:14:59.672Z,29.3
2018-05-15T12:16:01.712Z,29.1
2018-05-15T12:17:03.604Z,29.1
2018-05-15T12:18:05.167Z,29.1
2018-05-15T12:19:06.779Z,29.2
2018-05-15T12:20:10.747Z,29.2
2018-05-15T12:21:14.859Z,29.3
2018-05-15T12:22:16.235Z,29.2
2018-05-15T12:23:20.630Z,29.2
2018-05-15T12:24:22.340Z,29.3
2018-05-15T12:25:23.871Z,29.2
2018-05-15T12:26:27.003Z,29.1
2018-05-15T12:27:28.448Z,29.3
2018-05-15T12:28:29.833Z,29.3
2018-05-15T12:29:31.614Z,29.2
2018-05-15T12:30:33.179Z,29.2
2018-05-15T12:31:34.993Z,29.2
2018-05-15T12:32:36.689Z,29.2
2018-05-15T12:33:38.126Z,29.2
2018-05-15T12:34:41.472Z,29.1
2018-05-15T12:35:43.144Z,29.1
2018-05-15T12:36:47.489Z,29.2
2018-05-15T12:37:48.892Z,29.1
2018-05-15T12:38:55.441Z,29.1
2018-05-15T12:39:58.205Z,29.1
2018-05-15T12:40:59.791Z,29.1
2018-05-15T12:42:01.350Z,29.1
2018-05-15T12:43:02.846Z,29.1
2018-05-15T12:44:04.318Z,29
2018-05-15T12:45:05.915Z,29.1
2018-05-15T12:46:07.386Z,29
2018-05-15T12:47:08.860Z,29
2018-05-15T12:48:10.530Z,29.1
2018-05-15T12:49:11.840Z,29
2018-05-15T12:50:13.672Z,28.9
2018-05-15T12:51:15.487Z,28.8
2018-05-15T12:52:17.048Z,29
2018-05-15T12:53:18.754Z,28.9
2018-05-15T12:54:21.195Z,29
2018-05-15T12:55:23.347Z,29
2018-05-15T12:56:26.841Z,29
2018-05-15T12:57:28.225Z,29
2018-05-15T12:58:29.558Z,29
2018-05-15T12:59:30.932Z,29
2018-05-15T13:00:36.663Z,29
2018-05-15T13:01:38.036Z,28.9
2018-05-15T13:02:41.312Z,28.9
2018-05-15T13:03:42.654Z,29
2018-05-15T13:04:44.641Z,29
2018-05-15T13:05:48.139Z,28.9
2018-05-15T13:06:52.026Z,29
2018-05-15T13:07:53.580Z,29
2018-05-15T13:08:58.211Z,29
2018-05-15T13:10:07.140Z,28.9
2018-05-15T13:11:08.786Z,29
2018-05-15T13:13:34.950Z,29
2018-05-15T13:14:36.377Z,28.9
2018-05-15T13:15:37.887Z,29
2018-05-15T13:16:39.277Z,29
2018-05-15T13:17:40.705Z,28.9
2018-05-15T13:18:42.342Z,29
2018-05-15T13:19:43.818Z,29
2018-05-15T13:20:45.290Z,29
2018-05-15T13:21:49.059Z,29
2018-05-15T13:22:51.148Z,29
2018-05-15T13:23:52.679Z,28.9
2018-05-15T13:24:54.399Z,28.9
2018-05-15T13:25:55.754Z,29
2018-05-15T13:26:57.196Z,29
2018-05-15T13:28:00.377Z,29
2018-05-15T13:29:04.205Z,29
2018-05-15T13:30:06.009Z,29
2018-05-15T13:31:07.603Z,29
2018-05-15T13:32:09.037Z,29
2018-05-15T13:33:10.495Z,29
2018-05-15T13:34:11.979Z,29
2018-05-15T13:35:13.434Z,28.9
2018-05-15T13:36:16.103Z,29
2018-05-15T13:37:17.583Z,29
2018-05-15T13:38:19.013Z,29
2018-05-15T13:39:20.606Z,28.9
2018-05-15T13:40:22.015Z,29
2018-05-15T13:41:23.555Z,29
2018-05-15T13:42:25.011Z,28.9
2018-05-15T13:43:26.380Z,28.9
2018-05-15T13:44:29.136Z,28.9
2018-05-15T13:45:30.578Z,28.9
2018-05-15T13:46:31.960Z,28.9
2018-05-15T13:47:39.616Z,28.9
2018-05-15T13:48:41.049Z,28.9
2018-05-15T13:49:42.478Z,28.8
2018-05-15T13:50:43.985Z,28.8
2018-05-15T13:51:45.367Z,28.9
2018-05-15T13:52:46.746Z,28.9
2018-05-15T13:53:48.211Z,28.9
2018-05-15T13:54:49.743Z,29
2018-05-15T13:55:51.280Z,29
2018-05-15T13:56:52.589Z,28.9
2018-05-15T13:57:53.988Z,29
2018-05-15T13:58:55.407Z,28.9